sensor_id;sensor_type;location;lat;lon;timestamp;temperature;humidity
14016;DHT22;7083;48.854;9.158;2022-12-26T00:00:00;9.60;99.90
14016;DHT22;7083;48.854;9.158;2022-12-26T00:02:27;9.60;99.90
14016;DHT22;7083;48.854;9.158;2022-12-26T00:04:54;9.60;99.90
14016;DHT22;7083;48.854;9.158;2022-12-26T00:07:22;9.60;99.90
14016;DHT22;7083;48.854;9.158;2022-12-26T00:09:48;9.70;99.90
14016;DHT22;7083;48.854;9.158;2022-12-26T00:12:15;9.70;99.90
14016;DHT22;7083;48.854;9.158;2022-12-26T00:14:42;9.80;99.90
14016;DHT22;7083;48.854;9.158;2022-12-26T00:17:08;9.80;99.90
14016;DHT22;7083;48.854;9.158;2022-12-26T00:19:35;9.80;99.90
14016;DHT22;7083;48.854;9.158;2022-12-26T00:22:02;9.80;99.90
14016;DHT22;7083;48.854;9.158;2022-12-26T00:24:30;9.80;99.90
14016;DHT22;7083;48.854;9.158;2022-12-26T00:26:56;9.80;99.90
14016;DHT22;7083;48.854;9.158;2022-12-26T00:29:23;9.90;99.90
14016;DHT22;7083;48.854;9.158;2022-12-26T00:31:50;9.90;99.90
14016;DHT22;7083;48.854;9.158;2022-12-26T00:34:16;9.90;99.90
14016;DHT22;7083;48.854;9.158;2022-12-26T00:36:43;9.90;99.90
14016;DHT22;7083;48.854;9.158;2022-12-26T00:39:10;9.90;99.90
14016;DHT22;7083;48.854;9.158;2022-12-26T00:41:38;9.90;99.90
14016;DHT22;7083;48.854;9.158;2022-12-26T00:44:05;9.90;99.90
14016;DHT22;7083;48.854;9.158;2022-12-26T00:46:31;9.90;99.90
14016;DHT22;7083;48.854;9.158;2022-12-26T00:48:58;9.90;99.90
14016;DHT22;7083;48.854;9.158;2022-12-26T00:51:25;9.80;99.90
14016;DHT22;7083;48.854;9.158;2022-12-26T00:53:52;9.80;99.90
14016;DHT22;7083;48.854;9.158;2022-12-26T00:56:19;9.70;99.90
14016;DHT22;7083;48.854;9.158;2022-12-26T00:58:47;9.70;99.90
14016;DHT22;7083;48.854;9.158;2022-12-26T01:01:16;9.60;99.90
14016;DHT22;7083;48.854;9.158;2022-12-26T01:03:44;9.60;99.90
14016;DHT22;7083;48.854;9.158;2022-12-26T01:06:11;9.60;99.90
14016;DHT22;7083;48.854;9.158;2022-12-26T01:08:38;9.70;99.90
14016;DHT22;7083;48.854;9.158;2022-12-26T01:11:07;9.70;99.90
14016;DHT22;7083;48.854;9.158;2022-12-26T01:13:35;9.60;99.90
14016;DHT22;7083;48.854;9.158;2022-12-26T01:16:04;9.60;99.90
14016;DHT22;7083;48.854;9.158;2022-12-26T01:18:32;9.50;99.90
14016;DHT22;7083;48.854;9.158;2022-12-26T01:21:01;9.50;99.90
14016;DHT22;7083;48.854;9.158;2022-12-26T01:23:28;9.50;99.90
14016;DHT22;7083;48.854;9.158;2022-12-26T01:25:55;9.40;99.90
14016;DHT22;7083;48.854;9.158;2022-12-26T01:28:22;9.40;99.90
14016;DHT22;7083;48.854;9.158;2022-12-26T01:30:48;9.30;99.90
14016;DHT22;7083;48.854;9.158;2022-12-26T01:33:16;9.30;99.90
14016;DHT22;7083;48.854;9.158;2022-12-26T01:35:51;9.30;99.90
14016;DHT22;7083;48.854;9.158;2022-12-26T01:38:18;9.20;99.90
14016;DHT22;7083;48.854;9.158;2022-12-26T01:40:45;9.20;99.90
14016;DHT22;7083;48.854;9.158;2022-12-26T01:43:14;9.10;99.90
14016;DHT22;7083;48.854;9.158;2022-12-26T01:45:42;9.10;99.90
14016;DHT22;7083;48.854;9.158;2022-12-26T01:48:18;9.10;99.90
14016;DHT22;7083;48.854;9.158;2022-12-26T01:50:49;9.00;99.90
14016;DHT22;7083;48.854;9.158;2022-12-26T01:53:19;9.00;99.90
14016;DHT22;7083;48.854;9.158;2022-12-26T01:55:50;9.00;99.90
14016;DHT22;7083;48.854;9.158;2022-12-26T01:58:22;9.00;99.90
14016;DHT22;7083;48.854;9.158;2022-12-26T02:00:50;9.00;99.90
14016;DHT22;7083;48.854;9.158;2022-12-26T02:03:18;9.00;99.90
14016;DHT22;7083;48.854;9.158;2022-12-26T02:06:03;9.00;99.90
14016;DHT22;7083;48.854;9.158;2022-12-26T02:08:32;9.00;99.90
14016;DHT22;7083;48.854;9.158;2022-12-26T02:11:06;9.00;99.90
14016;DHT22;7083;48.854;9.158;2022-12-26T02:13:34;9.00;99.90
14016;DHT22;7083;48.854;9.158;2022-12-26T02:16:02;9.10;99.90
14016;DHT22;7083;48.854;9.158;2022-12-26T02:18:31;9.10;99.90
14016;DHT22;7083;48.854;9.158;2022-12-26T02:21:07;9.10;99.90
14016;DHT22;7083;48.854;9.158;2022-12-26T02:23:52;9.00;99.90
14016;DHT22;7083;48.854;9.158;2022-12-26T02:26:51;9.00;99.90
14016;DHT22;7083;48.854;9.158;2022-12-26T02:32:48;8.90;99.90
14016;DHT22;7083;48.854;9.158;2022-12-26T02:35:29;8.80;99.90
14016;DHT22;7083;48.854;9.158;2022-12-26T02:38:06;8.90;99.90
14016;DHT22;7083;48.854;9.158;2022-12-26T02:40:44;8.90;99.90
14016;DHT22;7083;48.854;9.158;2022-12-26T02:43:17;9.00;99.90
14016;DHT22;7083;48.854;9.158;2022-12-26T02:45:53;9.10;99.90
14016;DHT22;7083;48.854;9.158;2022-12-26T02:48:48;9.10;99.90
14016;DHT22;7083;48.854;9.158;2022-12-26T02:51:26;9.10;99.90
14016;DHT22;7083;48.854;9.158;2022-12-26T02:54:19;9.20;99.90
14016;DHT22;7083;48.854;9.158;2022-12-26T02:57:10;9.20;99.90
14016;DHT22;7083;48.854;9.158;2022-12-26T02:59:58;9.20;99.90
14016;DHT22;7083;48.854;9.158;2022-12-26T03:02:48;9.20;99.90
14016;DHT22;7083;48.854;9.158;2022-12-26T03:05:39;9.30;99.90
14016;DHT22;7083;48.854;9.158;2022-12-26T03:08:28;9.30;99.90
14016;DHT22;7083;48.854;9.158;2022-12-26T03:11:13;9.30;99.90
14016;DHT22;7083;48.854;9.158;2022-12-26T03:14:02;9.30;99.90
14016;DHT22;7083;48.854;9.158;2022-12-26T03:16:31;9.30;99.90
14016;DHT22;7083;48.854;9.158;2022-12-26T03:19:16;9.40;99.90
14016;DHT22;7083;48.854;9.158;2022-12-26T03:21:45;9.40;99.90
14016;DHT22;7083;48.854;9.158;2022-12-26T03:24:14;9.40;99.90
14016;DHT22;7083;48.854;9.158;2022-12-26T03:26:46;9.40;99.90
14016;DHT22;7083;48.854;9.158;2022-12-26T03:29:14;9.50;99.90
14016;DHT22;7083;48.854;9.158;2022-12-26T03:32:00;9.50;99.90
14016;DHT22;7083;48.854;9.158;2022-12-26T03:34:28;9.60;99.90
14016;DHT22;7083;48.854;9.158;2022-12-26T03:37:22;9.70;99.90
14016;DHT22;7083;48.854;9.158;2022-12-26T03:40:00;9.70;99.90
14016;DHT22;7083;48.854;9.158;2022-12-26T03:42:53;9.60;99.90
14016;DHT22;7083;48.854;9.158;2022-12-26T03:45:48;9.60;99.90
14016;DHT22;7083;48.854;9.158;2022-12-26T03:48:55;9.60;99.90
14016;DHT22;7083;48.854;9.158;2022-12-26T03:51:45;9.60;99.90
14016;DHT22;7083;48.854;9.158;2022-12-26T03:54:41;9.70;99.90
14016;DHT22;7083;48.854;9.158;2022-12-26T03:57:31;9.70;99.90
14016;DHT22;7083;48.854;9.158;2022-12-26T04:00:16;9.80;99.90
14016;DHT22;7083;48.854;9.158;2022-12-26T04:03:05;9.90;99.90
14016;DHT22;7083;48.854;9.158;2022-12-26T04:05:51;9.90;99.90
14016;DHT22;7083;48.854;9.158;2022-12-26T04:08:42;10.00;99.90
14016;DHT22;7083;48.854;9.158;2022-12-26T04:11:29;10.00;99.90
14016;DHT22;7083;48.854;9.158;2022-12-26T04:14:24;10.00;99.90
14016;DHT22;7083;48.854;9.158;2022-12-26T04:17:20;10.10;99.90
14016;DHT22;7083;48.854;9.158;2022-12-26T04:20:08;10.10;99.90
14016;DHT22;7083;48.854;9.158;2022-12-26T04:22:41;10.10;99.90
14016;DHT22;7083;48.854;9.158;2022-12-26T04:25:29;10.10;99.90
14016;DHT22;7083;48.854;9.158;2022-12-26T04:28:16;10.10;99.90
14016;DHT22;7083;48.854;9.158;2022-12-26T04:31:05;10.10;99.90
14016;DHT22;7083;48.854;9.158;2022-12-26T04:33:52;10.20;99.90
14016;DHT22;7083;48.854;9.158;2022-12-26T04:36:42;10.10;99.90
14016;DHT22;7083;48.854;9.158;2022-12-26T04:39:30;10.10;99.90
14016;DHT22;7083;48.854;9.158;2022-12-26T04:42:16;10.10;99.90
14016;DHT22;7083;48.854;9.158;2022-12-26T04:45:04;10.10;99.90
14016;DHT22;7083;48.854;9.158;2022-12-26T04:47:31;10.10;99.90
14016;DHT22;7083;48.854;9.158;2022-12-26T04:49:58;10.10;99.90
14016;DHT22;7083;48.854;9.158;2022-12-26T04:52:36;10.10;99.90
14016;DHT22;7083;48.854;9.158;2022-12-26T04:55:23;10.10;99.90
14016;DHT22;7083;48.854;9.158;2022-12-26T04:57:50;10.10;99.90
14016;DHT22;7083;48.854;9.158;2022-12-26T05:00:18;10.10;99.90
14016;DHT22;7083;48.854;9.158;2022-12-26T05:02:45;10.10;99.90
14016;DHT22;7083;48.854;9.158;2022-12-26T05:05:38;10.00;99.90
14016;DHT22;7083;48.854;9.158;2022-12-26T05:08:25;10.00;99.90
14016;DHT22;7083;48.854;9.158;2022-12-26T05:11:10;10.00;99.90
14016;DHT22;7083;48.854;9.158;2022-12-26T05:13:36;10.10;99.90
14016;DHT22;7083;48.854;9.158;2022-12-26T05:16:05;10.10;99.90
14016;DHT22;7083;48.854;9.158;2022-12-26T05:18:50;10.10;99.90
14016;DHT22;7083;48.854;9.158;2022-12-26T05:21:34;10.40;99.90
14016;DHT22;7083;48.854;9.158;2022-12-26T05:24:18;10.20;99.90
14016;DHT22;7083;48.854;9.158;2022-12-26T05:27:03;10.30;99.90
14016;DHT22;7083;48.854;9.158;2022-12-26T05:29:46;10.30;99.90
14016;DHT22;7083;48.854;9.158;2022-12-26T05:32:15;10.30;99.90
14016;DHT22;7083;48.854;9.158;2022-12-26T05:34:59;10.30;99.90
14016;DHT22;7083;48.854;9.158;2022-12-26T05:37:25;10.30;99.90
14016;DHT22;7083;48.854;9.158;2022-12-26T05:39:52;10.30;99.90
14016;DHT22;7083;48.854;9.158;2022-12-26T05:42:19;10.30;99.90
14016;DHT22;7083;48.854;9.158;2022-12-26T05:44:45;10.30;99.90
14016;DHT22;7083;48.854;9.158;2022-12-26T05:47:12;10.30;99.90
14016;DHT22;7083;48.854;9.158;2022-12-26T05:49:40;10.30;99.90
14016;DHT22;7083;48.854;9.158;2022-12-26T05:52:07;10.30;99.90
14016;DHT22;7083;48.854;9.158;2022-12-26T05:54:33;10.30;99.90
14016;DHT22;7083;48.854;9.158;2022-12-26T05:57:00;10.30;99.90
14016;DHT22;7083;48.854;9.158;2022-12-26T05:59:28;10.30;99.90
14016;DHT22;7083;48.854;9.158;2022-12-26T06:01:55;10.30;99.90
14016;DHT22;7083;48.854;9.158;2022-12-26T06:04:21;10.30;99.90
14016;DHT22;7083;48.854;9.158;2022-12-26T06:06:49;10.30;99.90
14016;DHT22;7083;48.854;9.158;2022-12-26T06:09:16;10.30;99.90
14016;DHT22;7083;48.854;9.158;2022-12-26T06:11:43;10.30;99.90
14016;DHT22;7083;48.854;9.158;2022-12-26T06:14:10;10.30;99.90
14016;DHT22;7083;48.854;9.158;2022-12-26T06:16:36;10.30;99.90
14016;DHT22;7083;48.854;9.158;2022-12-26T06:19:03;10.30;99.90
14016;DHT22;7083;48.854;9.158;2022-12-26T06:21:30;10.20;99.90
14016;DHT22;7083;48.854;9.158;2022-12-26T06:23:58;10.20;99.90
14016;DHT22;7083;48.854;9.158;2022-12-26T06:26:24;10.20;99.90
14016;DHT22;7083;48.854;9.158;2022-12-26T06:28:51;10.20;99.90
14016;DHT22;7083;48.854;9.158;2022-12-26T06:31:20;10.20;99.90
14016;DHT22;7083;48.854;9.158;2022-12-26T06:33:47;10.20;99.90
14016;DHT22;7083;48.854;9.158;2022-12-26T06:36:16;10.30;99.90
14016;DHT22;7083;48.854;9.158;2022-12-26T06:38:43;10.10;99.90
14016;DHT22;7083;48.854;9.158;2022-12-26T06:41:13;10.10;99.90
14016;DHT22;7083;48.854;9.158;2022-12-26T06:43:41;10.00;99.90
14016;DHT22;7083;48.854;9.158;2022-12-26T06:46:11;10.10;99.90
14016;DHT22;7083;48.854;9.158;2022-12-26T06:48:38;10.10;99.90
14016;DHT22;7083;48.854;9.158;2022-12-26T06:51:06;10.10;99.90
14016;DHT22;7083;48.854;9.158;2022-12-26T06:53:33;10.10;99.90
14016;DHT22;7083;48.854;9.158;2022-12-26T06:56:05;10.10;99.90
14016;DHT22;7083;48.854;9.158;2022-12-26T06:58:33;10.10;99.90
14016;DHT22;7083;48.854;9.158;2022-12-26T07:01:03;10.10;99.90
14016;DHT22;7083;48.854;9.158;2022-12-26T07:03:30;10.10;99.90
14016;DHT22;7083;48.854;9.158;2022-12-26T07:06:01;10.20;99.90
14016;DHT22;7083;48.854;9.158;2022-12-26T07:08:28;10.20;99.90
14016;DHT22;7083;48.854;9.158;2022-12-26T07:10:55;10.20;99.90
14016;DHT22;7083;48.854;9.158;2022-12-26T07:13:21;10.20;99.90
14016;DHT22;7083;48.854;9.158;2022-12-26T07:15:50;10.20;99.90
14016;DHT22;7083;48.854;9.158;2022-12-26T07:18:16;10.20;99.90
14016;DHT22;7083;48.854;9.158;2022-12-26T07:20:43;10.20;99.90
14016;DHT22;7083;48.854;9.158;2022-12-26T07:23:10;10.20;99.90
14016;DHT22;7083;48.854;9.158;2022-12-26T07:25:37;10.20;99.90
14016;DHT22;7083;48.854;9.158;2022-12-26T07:28:04;10.10;99.90
14016;DHT22;7083;48.854;9.158;2022-12-26T07:30:30;10.10;99.90
14016;DHT22;7083;48.854;9.158;2022-12-26T07:32:58;10.10;99.90
14016;DHT22;7083;48.854;9.158;2022-12-26T07:35:25;10.20;99.90
14016;DHT22;7083;48.854;9.158;2022-12-26T07:37:52;10.00;99.90
14016;DHT22;7083;48.854;9.158;2022-12-26T07:40:18;10.00;99.90
14016;DHT22;7083;48.854;9.158;2022-12-26T07:42:45;10.00;99.90
14016;DHT22;7083;48.854;9.158;2022-12-26T07:45:12;10.00;99.90
14016;DHT22;7083;48.854;9.158;2022-12-26T07:47:38;10.00;99.90
14016;DHT22;7083;48.854;9.158;2022-12-26T07:50:07;10.00;99.90
14016;DHT22;7083;48.854;9.158;2022-12-26T07:52:34;10.00;99.90
14016;DHT22;7083;48.854;9.158;2022-12-26T07:55:01;10.00;99.90
14016;DHT22;7083;48.854;9.158;2022-12-26T07:57:28;10.00;99.90
14016;DHT22;7083;48.854;9.158;2022-12-26T07:59:55;10.00;99.90
14016;DHT22;7083;48.854;9.158;2022-12-26T08:02:22;10.00;99.90
14016;DHT22;7083;48.854;9.158;2022-12-26T08:04:48;10.00;99.90
14016;DHT22;7083;48.854;9.158;2022-12-26T08:07:16;10.00;99.90
14016;DHT22;7083;48.854;9.158;2022-12-26T08:09:43;10.00;99.90
14016;DHT22;7083;48.854;9.158;2022-12-26T08:12:10;10.00;99.90
14016;DHT22;7083;48.854;9.158;2022-12-26T08:14:37;10.00;99.90
14016;DHT22;7083;48.854;9.158;2022-12-26T08:17:04;10.00;99.90
14016;DHT22;7083;48.854;9.158;2022-12-26T08:19:31;10.00;99.90
14016;DHT22;7083;48.854;9.158;2022-12-26T08:21:57;10.00;99.90
14016;DHT22;7083;48.854;9.158;2022-12-26T08:24:25;10.00;99.90
14016;DHT22;7083;48.854;9.158;2022-12-26T08:26:52;10.00;99.90
14016;DHT22;7083;48.854;9.158;2022-12-26T08:29:19;10.00;99.90
14016;DHT22;7083;48.854;9.158;2022-12-26T08:31:45;10.00;99.90
14016;DHT22;7083;48.854;9.158;2022-12-26T08:34:12;10.00;99.90
14016;DHT22;7083;48.854;9.158;2022-12-26T08:36:39;10.10;99.90
14016;DHT22;7083;48.854;9.158;2022-12-26T08:39:06;10.10;99.90
14016;DHT22;7083;48.854;9.158;2022-12-26T08:41:34;10.00;99.90
14016;DHT22;7083;48.854;9.158;2022-12-26T08:44:00;10.00;99.90
14016;DHT22;7083;48.854;9.158;2022-12-26T08:46:27;10.10;99.90
14016;DHT22;7083;48.854;9.158;2022-12-26T08:48:54;10.10;99.90
14016;DHT22;7083;48.854;9.158;2022-12-26T08:51:23;10.10;99.90
14016;DHT22;7083;48.854;9.158;2022-12-26T08:53:51;10.10;99.90
14016;DHT22;7083;48.854;9.158;2022-12-26T08:56:20;10.10;99.90
14016;DHT22;7083;48.854;9.158;2022-12-26T08:58:48;10.10;99.90
14016;DHT22;7083;48.854;9.158;2022-12-26T09:01:16;10.20;99.90
14016;DHT22;7083;48.854;9.158;2022-12-26T09:03:44;10.20;99.90
14016;DHT22;7083;48.854;9.158;2022-12-26T09:06:12;10.30;99.90
14016;DHT22;7083;48.854;9.158;2022-12-26T09:08:40;10.20;99.90
14016;DHT22;7083;48.854;9.158;2022-12-26T09:11:09;10.20;99.90
14016;DHT22;7083;48.854;9.158;2022-12-26T09:13:37;10.10;99.90
14016;DHT22;7083;48.854;9.158;2022-12-26T09:16:07;10.00;99.90
14016;DHT22;7083;48.854;9.158;2022-12-26T09:18:34;9.90;99.90
14016;DHT22;7083;48.854;9.158;2022-12-26T09:21:01;9.90;99.90
14016;DHT22;7083;48.854;9.158;2022-12-26T09:23:29;9.80;99.90
14016;DHT22;7083;48.854;9.158;2022-12-26T09:26:02;9.70;99.90
14016;DHT22;7083;48.854;9.158;2022-12-26T09:28:29;9.70;99.90
14016;DHT22;7083;48.854;9.158;2022-12-26T09:30:58;9.60;99.90
14016;DHT22;7083;48.854;9.158;2022-12-26T09:33:27;9.50;99.90
14016;DHT22;7083;48.854;9.158;2022-12-26T09:35:54;9.50;99.90
14016;DHT22;7083;48.854;9.158;2022-12-26T09:38:21;9.40;99.90
14016;DHT22;7083;48.854;9.158;2022-12-26T09:40:53;9.40;99.90
14016;DHT22;7083;48.854;9.158;2022-12-26T09:43:28;9.40;99.90
14016;DHT22;7083;48.854;9.158;2022-12-26T09:46:02;9.30;99.90
14016;DHT22;7083;48.854;9.158;2022-12-26T09:48:44;9.30;99.90
14016;DHT22;7083;48.854;9.158;2022-12-26T09:51:12;9.30;99.90
14016;DHT22;7083;48.854;9.158;2022-12-26T09:53:41;9.30;99.90
14016;DHT22;7083;48.854;9.158;2022-12-26T09:56:13;9.20;99.90
14016;DHT22;7083;48.854;9.158;2022-12-26T09:58:43;9.20;99.90
14016;DHT22;7083;48.854;9.158;2022-12-26T10:01:15;9.20;99.90
14016;DHT22;7083;48.854;9.158;2022-12-26T10:03:45;9.20;99.90
14016;DHT22;7083;48.854;9.158;2022-12-26T10:06:15;9.20;99.90
14016;DHT22;7083;48.854;9.158;2022-12-26T10:08:52;9.20;99.90
14016;DHT22;7083;48.854;9.158;2022-12-26T10:11:31;9.70;99.90
14016;DHT22;7083;48.854;9.158;2022-12-26T10:14:06;9.30;99.90
14016;DHT22;7083;48.854;9.158;2022-12-26T10:16:42;9.30;99.90
14016;DHT22;7083;48.854;9.158;2022-12-26T10:19:32;9.30;99.90
14016;DHT22;7083;48.854;9.158;2022-12-26T10:22:19;9.30;99.90
14016;DHT22;7083;48.854;9.158;2022-12-26T10:24:49;9.30;99.90
14016;DHT22;7083;48.854;9.158;2022-12-26T10:27:17;9.30;99.90
14016;DHT22;7083;48.854;9.158;2022-12-26T10:29:49;9.30;99.90
14016;DHT22;7083;48.854;9.158;2022-12-26T10:32:21;9.30;99.90
14016;DHT22;7083;48.854;9.158;2022-12-26T10:34:52;9.30;99.90
14016;DHT22;7083;48.854;9.158;2022-12-26T10:37:24;9.40;99.90
14016;DHT22;7083;48.854;9.158;2022-12-26T10:39:54;9.50;99.90
14016;DHT22;7083;48.854;9.158;2022-12-26T10:42:25;9.40;99.90
14016;DHT22;7083;48.854;9.158;2022-12-26T10:44:53;9.40;99.90
14016;DHT22;7083;48.854;9.158;2022-12-26T10:47:25;9.40;99.90
14016;DHT22;7083;48.854;9.158;2022-12-26T10:49:53;9.40;99.90
14016;DHT22;7083;48.854;9.158;2022-12-26T10:52:27;9.40;99.90
14016;DHT22;7083;48.854;9.158;2022-12-26T10:54:58;9.40;99.90
14016;DHT22;7083;48.854;9.158;2022-12-26T10:57:27;9.40;99.90
14016;DHT22;7083;48.854;9.158;2022-12-26T10:59:55;9.40;99.90
14016;DHT22;7083;48.854;9.158;2022-12-26T11:02:25;9.40;99.90
14016;DHT22;7083;48.854;9.158;2022-12-26T11:05:08;9.40;99.90
14016;DHT22;7083;48.854;9.158;2022-12-26T11:07:37;9.40;99.90
14016;DHT22;7083;48.854;9.158;2022-12-26T11:10:13;9.50;99.90
14016;DHT22;7083;48.854;9.158;2022-12-26T11:12:45;9.50;99.90
14016;DHT22;7083;48.854;9.158;2022-12-26T11:15:21;9.50;99.90
14016;DHT22;7083;48.854;9.158;2022-12-26T11:17:50;9.40;99.90
14016;DHT22;7083;48.854;9.158;2022-12-26T11:20:28;9.40;99.90
14016;DHT22;7083;48.854;9.158;2022-12-26T11:23:12;9.40;99.90
14016;DHT22;7083;48.854;9.158;2022-12-26T11:25:48;9.40;99.90
14016;DHT22;7083;48.854;9.158;2022-12-26T11:28:23;9.40;99.90
14016;DHT22;7083;48.854;9.158;2022-12-26T11:30:50;9.40;99.90
14016;DHT22;7083;48.854;9.158;2022-12-26T11:33:22;9.50;99.90
14016;DHT22;7083;48.854;9.158;2022-12-26T11:35:55;9.50;99.90
14016;DHT22;7083;48.854;9.158;2022-12-26T11:38:23;9.50;99.90
14016;DHT22;7083;48.854;9.158;2022-12-26T11:41:07;9.60;99.90
14016;DHT22;7083;48.854;9.158;2022-12-26T11:43:53;9.60;99.90
14016;DHT22;7083;48.854;9.158;2022-12-26T11:46:20;9.60;99.90
14016;DHT22;7083;48.854;9.158;2022-12-26T11:48:50;9.60;99.90
14016;DHT22;7083;48.854;9.158;2022-12-26T11:51:33;9.60;99.90
14016;DHT22;7083;48.854;9.158;2022-12-26T11:54:28;9.60;99.90
14016;DHT22;7083;48.854;9.158;2022-12-26T11:57:15;9.60;99.90
14016;DHT22;7083;48.854;9.158;2022-12-26T11:59:42;9.60;99.90
14016;DHT22;7083;48.854;9.158;2022-12-26T12:02:24;9.60;99.90
14016;DHT22;7083;48.854;9.158;2022-12-26T12:04:54;9.60;99.90
14016;DHT22;7083;48.854;9.158;2022-12-26T12:07:43;9.60;99.90
14016;DHT22;7083;48.854;9.158;2022-12-26T12:13:34;9.70;99.90
14016;DHT22;7083;48.854;9.158;2022-12-26T12:16:10;9.70;99.90
14016;DHT22;7083;48.854;9.158;2022-12-26T12:18:47;10.20;99.90
14016;DHT22;7083;48.854;9.158;2022-12-26T12:21:20;9.80;99.90
14016;DHT22;7083;48.854;9.158;2022-12-26T12:24:20;9.80;99.90
14016;DHT22;7083;48.854;9.158;2022-12-26T12:27:00;9.70;99.90
14016;DHT22;7083;48.854;9.158;2022-12-26T12:29:42;9.70;99.90
14016;DHT22;7083;48.854;9.158;2022-12-26T12:32:16;9.70;99.90
14016;DHT22;7083;48.854;9.158;2022-12-26T12:34:57;9.70;99.90
14016;DHT22;7083;48.854;9.158;2022-12-26T12:37:33;9.60;99.90
14016;DHT22;7083;48.854;9.158;2022-12-26T12:40:16;9.50;99.90
14016;DHT22;7083;48.854;9.158;2022-12-26T12:42:52;9.40;99.90
14016;DHT22;7083;48.854;9.158;2022-12-26T12:45:24;9.40;99.90
14016;DHT22;7083;48.854;9.158;2022-12-26T12:48:23;9.40;99.90
14016;DHT22;7083;48.854;9.158;2022-12-26T12:50:58;10.50;99.90
14016;DHT22;7083;48.854;9.158;2022-12-26T12:53:51;9.40;99.90
14016;DHT22;7083;48.854;9.158;2022-12-26T12:56:28;9.40;99.90
14016;DHT22;7083;48.854;9.158;2022-12-26T12:59:17;9.40;99.90
14016;DHT22;7083;48.854;9.158;2022-12-26T13:01:51;9.40;99.90
14016;DHT22;7083;48.854;9.158;2022-12-26T13:04:23;9.40;99.90
14016;DHT22;7083;48.854;9.158;2022-12-26T13:06:53;9.40;99.90
14016;DHT22;7083;48.854;9.158;2022-12-26T13:09:23;9.40;99.90
14016;DHT22;7083;48.854;9.158;2022-12-26T13:11:57;9.40;99.90
14016;DHT22;7083;48.854;9.158;2022-12-26T13:14:29;9.30;99.90
14016;DHT22;7083;48.854;9.158;2022-12-26T13:17:01;9.30;99.90
14016;DHT22;7083;48.854;9.158;2022-12-26T13:19:33;9.40;99.90
14016;DHT22;7083;48.854;9.158;2022-12-26T13:22:05;9.20;99.90
14016;DHT22;7083;48.854;9.158;2022-12-26T13:24:41;9.10;99.90
14016;DHT22;7083;48.854;9.158;2022-12-26T13:27:14;9.20;99.90
14016;DHT22;7083;48.854;9.158;2022-12-26T13:29:42;9.30;99.90
14016;DHT22;7083;48.854;9.158;2022-12-26T13:32:25;9.30;99.90
14016;DHT22;7083;48.854;9.158;2022-12-26T13:34:54;9.30;99.90
14016;DHT22;7083;48.854;9.158;2022-12-26T13:37:54;9.30;99.90
14016;DHT22;7083;48.854;9.158;2022-12-26T13:40:24;9.40;99.90
14016;DHT22;7083;48.854;9.158;2022-12-26T13:42:54;9.40;99.90
14016;DHT22;7083;48.854;9.158;2022-12-26T13:45:54;11.00;99.90
14016;DHT22;7083;48.854;9.158;2022-12-26T13:51:54;9.40;99.90
14016;DHT22;7083;48.854;9.158;2022-12-26T13:54:22;9.40;99.90
14016;DHT22;7083;48.854;9.158;2022-12-26T13:57:27;9.40;99.90
14016;DHT22;7083;48.854;9.158;2022-12-26T14:00:05;9.40;99.90
14016;DHT22;7083;48.854;9.158;2022-12-26T14:05:37;9.40;99.90
14016;DHT22;7083;48.854;9.158;2022-12-26T14:08:12;9.40;99.90
14016;DHT22;7083;48.854;9.158;2022-12-26T14:10:54;9.30;99.90
14016;DHT22;7083;48.854;9.158;2022-12-26T14:13:37;9.40;99.90
14016;DHT22;7083;48.854;9.158;2022-12-26T14:16:14;9.30;99.90
14016;DHT22;7083;48.854;9.158;2022-12-26T14:18:47;9.30;99.90
14016;DHT22;7083;48.854;9.158;2022-12-26T14:21:32;9.30;99.90
14016;DHT22;7083;48.854;9.158;2022-12-26T14:24:09;9.30;99.90
14016;DHT22;7083;48.854;9.158;2022-12-26T14:26:47;9.30;99.90
14016;DHT22;7083;48.854;9.158;2022-12-26T14:29:20;9.30;99.90
14016;DHT22;7083;48.854;9.158;2022-12-26T14:32:02;9.30;99.90
14016;DHT22;7083;48.854;9.158;2022-12-26T14:34:48;9.30;99.90
14016;DHT22;7083;48.854;9.158;2022-12-26T14:37:22;9.30;99.90
14016;DHT22;7083;48.854;9.158;2022-12-26T14:40:01;9.10;99.90
14016;DHT22;7083;48.854;9.158;2022-12-26T14:42:30;9.20;99.90
14016;DHT22;7083;48.854;9.158;2022-12-26T14:45:37;9.20;99.90
14016;DHT22;7083;48.854;9.158;2022-12-26T14:51:37;9.30;99.90
14016;DHT22;7083;48.854;9.158;2022-12-26T14:54:39;9.20;99.90
14016;DHT22;7083;48.854;9.158;2022-12-26T14:57:43;9.30;99.90
14016;DHT22;7083;48.854;9.158;2022-12-26T15:00:33;9.20;99.90
14016;DHT22;7083;48.854;9.158;2022-12-26T15:03:31;9.20;99.90
14016;DHT22;7083;48.854;9.158;2022-12-26T15:06:26;9.20;99.90
14016;DHT22;7083;48.854;9.158;2022-12-26T15:09:10;9.20;99.90
14016;DHT22;7083;48.854;9.158;2022-12-26T15:12:00;9.30;99.90
14016;DHT22;7083;48.854;9.158;2022-12-26T15:14:55;9.10;99.90
14016;DHT22;7083;48.854;9.158;2022-12-26T15:17:33;9.00;99.90
14016;DHT22;7083;48.854;9.158;2022-12-26T15:20:33;9.00;99.90
14016;DHT22;7083;48.854;9.158;2022-12-26T15:23:31;9.00;99.90
14016;DHT22;7083;48.854;9.158;2022-12-26T15:29:26;8.90;99.90
14016;DHT22;7083;48.854;9.158;2022-12-26T15:32:03;8.90;99.90
14016;DHT22;7083;48.854;9.158;2022-12-26T15:34:44;8.90;99.90
14016;DHT22;7083;48.854;9.158;2022-12-26T15:37:23;9.00;99.90
14016;DHT22;7083;48.854;9.158;2022-12-26T15:40:01;9.00;99.90
14016;DHT22;7083;48.854;9.158;2022-12-26T15:42:40;9.00;99.90
14016;DHT22;7083;48.854;9.158;2022-12-26T15:45:28;9.00;99.90
14016;DHT22;7083;48.854;9.158;2022-12-26T15:48:01;9.00;99.90
14016;DHT22;7083;48.854;9.158;2022-12-26T15:50:33;8.90;99.90
14016;DHT22;7083;48.854;9.158;2022-12-26T15:53:12;8.90;99.90
14016;DHT22;7083;48.854;9.158;2022-12-26T15:56:03;9.00;99.90
14016;DHT22;7083;48.854;9.158;2022-12-26T15:58:56;8.90;99.90
14016;DHT22;7083;48.854;9.158;2022-12-26T16:01:39;9.00;99.90
14016;DHT22;7083;48.854;9.158;2022-12-26T16:04:12;9.00;99.90
14016;DHT22;7083;48.854;9.158;2022-12-26T16:07:17;9.00;99.90
14016;DHT22;7083;48.854;9.158;2022-12-26T16:09:48;9.30;99.90
14016;DHT22;7083;48.854;9.158;2022-12-26T16:12:23;8.90;99.90
14016;DHT22;7083;48.854;9.158;2022-12-26T16:15:00;8.80;99.90
14016;DHT22;7083;48.854;9.158;2022-12-26T16:17:29;8.80;99.90
14016;DHT22;7083;48.854;9.158;2022-12-26T16:19:56;8.80;99.90
14016;DHT22;7083;48.854;9.158;2022-12-26T16:22:33;8.80;99.90
14016;DHT22;7083;48.854;9.158;2022-12-26T16:25:13;8.70;99.90
14016;DHT22;7083;48.854;9.158;2022-12-26T16:27:40;8.70;99.90
14016;DHT22;7083;48.854;9.158;2022-12-26T16:30:15;8.70;99.90
14016;DHT22;7083;48.854;9.158;2022-12-26T16:32:45;8.80;99.90
14016;DHT22;7083;48.854;9.158;2022-12-26T16:35:18;8.80;99.90
14016;DHT22;7083;48.854;9.158;2022-12-26T16:37:46;8.80;99.90
14016;DHT22;7083;48.854;9.158;2022-12-26T16:40:17;8.80;99.90
14016;DHT22;7083;48.854;9.158;2022-12-26T16:42:52;8.80;99.90
14016;DHT22;7083;48.854;9.158;2022-12-26T16:45:20;9.10;99.90
14016;DHT22;7083;48.854;9.158;2022-12-26T16:47:51;8.80;99.90
14016;DHT22;7083;48.854;9.158;2022-12-26T16:50:21;8.80;99.90
14016;DHT22;7083;48.854;9.158;2022-12-26T16:52:48;8.80;99.90
14016;DHT22;7083;48.854;9.158;2022-12-26T16:55:34;8.90;99.90
14016;DHT22;7083;48.854;9.158;2022-12-26T16:58:03;8.90;99.90
14016;DHT22;7083;48.854;9.158;2022-12-26T17:00:36;8.90;99.90
14016;DHT22;7083;48.854;9.158;2022-12-26T17:03:08;8.80;99.90